Grantley Adams, Barbados

3:08 AM AST on April 25, 2017 (GMT -0400)
Grantley Adams International | | Change Station

Elev 184 ft 13.07 °N, 59.48 °W | Updated 8 minutes ago

Partly Cloudy
Partly Cloudy
81 °F
Feels Like 85 °F
N
17
Wind Variable Wind from East

Today
High -- | Low -- °F
--% Chance of Precip.
Yesterday
High -- | Low -- °F
Precip. -- in
Pressure 29.89 in
Visibility 6.2 miles
Clouds Few 2000 ft
Heat Index 85 °F
Dew Point 73 °F
Humidity 79%
Rainfall 0.00 in
Snow Depth Not available.
5:39 AM 6:12 PM
Waning Crescent, 2% visible
METAR TBPB 250700Z 10015KT 9999 FEW020 27/23 Q1012 NOSIG
Pressure 29.89 in
Visibility 6.2 miles
Clouds Few 2000 ft
Heat Index 85 °F
Dew Point 73 °F
Humidity 79%
Rainfall 0.00 in
Snow Depth Not available.
5:39 AM 6:12 PM
Waning Crescent, 2% visible
METAR TBPB 250700Z 10015KT 9999 FEW020 27/23 Q1012 NOSIG

Get Severe Weather Alerts

Thanks for signing up!

Be on the lookout for a verification email in your inbox.

You'll start receiving the daily forecast at 8 AM.

×

10-Day Weather Forecast

No radar image for this location.
×

Almanac

Astronomy

Apr. 25, 2017 Rise Set
Actual Time
Civil Twilight
Nautical Twilight
Astronomical Twilight
Moon
Length of Visible Light
Length of Day
Tomorrow will be .
, % of the Moon is Illuminated

Today's Extremes

Country Highs Country Lows

Community

WunderPhotos

WunderBlog® & News

Nearby

Air Quality

  Air Quality AQ Index Pollutant
Not available.

Snow Depth

Station Depth Elevation

Earthquake Activity

City Distance Mag. Time & Date
Minimum magnitude displayed is 2.5.

Coastal Water Temperatures

Place Temperature

Stations

Nearby Weather Stations

Station Location Temp. Windchill Dew Point Humidity Wind Precip. Elev Updated Type